Time;durP1;ratioP1;P1;durP2;ratioP2;P2;SDS_P1;SDS_P2;PMS_P1;PMS_P2;Temp;Humidity;BMP_temperature;BMP_pressure;BME280_temperature;BME280_humidity;BME280_pressure;Samples;Min_cycle;Max_cycle;Signal;HPM_P1;HPM_P2
2022/12/18 10:45:41;;;;;;;17.65;6.65;;;;;;;21.52;58.07;101155.25;4935861;27;68952;-53
2022/12/18 10:48:19;;;;;;;20.50;7.70;;;;;;;21.53;58.12;101146.41;4778083;28;55260;-53
2022/12/18 10:50:47;;;;;;;15.38;7.53;;;;;;;21.58;57.83;101152.50;5038024;28;20044;-52
2022/12/18 10:53:15;;;;;;;19.42;7.60;;;;;;;21.64;57.81;101160.34;5047596;28;20480;-50
2022/12/18 10:55:42;;;;;;;17.00;7.45;;;;;;;21.70;57.77;101149.59;5043404;28;20041;-50
2022/12/18 10:58:18;;;;;;;18.63;7.57;;;;;;;21.77;57.54;101150.31;5047626;28;20045;-51
2022/12/18 11:00:48;;;;;;;22.38;8.18;;;;;;;21.84;57.58;101146.63;5038712;28;20060;-50
2022/12/18 11:03:31;;;;;;;17.73;7.53;;;;;;;21.92;57.15;101143.81;5040312;28;20060;-51
2022/12/18 11:06:02;;;;;;;18.92;8.15;;;;;;;21.99;57.28;101148.06;5040359;28;21482;-52
2022/12/18 11:08:29;;;;;;;15.55;7.38;;;;;;;22.04;57.11;101140.88;5026105;28;20052;-50
2022/12/18 11:10:56;;;;;;;16.75;7.93;;;;;;;22.09;56.68;101141.63;5023667;28;20500;-50
2022/12/18 11:13:23;;;;;;;15.10;7.50;;;;;;;22.14;56.72;101138.88;5023149;28;20057;-51
2022/12/18 11:15:52;;;;;;;35.92;8.05;;;;;;;22.20;56.73;101141.41;5022775;28;20042;-50
2022/12/18 11:18:20;;;;;;;20.10;8.23;;;;;;;22.24;56.37;101143.06;5022708;28;20052;-51
2022/12/18 11:20:52;;;;;;;21.27;8.30;;;;;;;22.30;56.54;101145.59;5017776;28;20065;-50
2022/12/18 11:23:18;;;;;;;19.55;7.43;;;;;;;22.34;56.40;101141.09;5025201;28;20046;-52
2022/12/18 11:25:52;;;;;;;22.20;8.38;;;;;;;22.38;56.48;101140.97;5025556;28;20048;-52
2022/12/18 11:28:27;;;;;;;15.80;7.97;;;;;;;22.42;56.18;101147.09;5025874;28;20137;-52
2022/12/18 11:31:10;;;;;;;15.88;7.65;;;;;;;22.45;56.07;101143.47;5022550;28;20141;-51
2022/12/18 11:33:37;;;;;;;16.45;7.63;;;;;;;22.47;56.12;101137.25;5026419;28;20042;-53
2022/12/18 11:36:06;;;;;;;21.25;8.50;;;;;;;22.49;55.94;101127.44;5015577;28;20587;-52
2022/12/18 11:38:34;;;;;;;15.32;8.02;;;;;;;22.52;56.06;101121.19;5019226;28;20525;-52
2022/12/18 11:41:05;;;;;;;16.38;7.95;;;;;;;22.54;55.84;101122.88;5025819;28;20050;-51
2022/12/18 11:43:33;;;;;;;16.95;8.20;;;;;;;22.56;56.04;101121.03;5025606;28;20064;-53
2022/12/18 11:46:01;;;;;;;16.15;7.72;;;;;;;22.58;55.93;101127.19;5026995;28;20145;-52
2022/12/18 11:48:31;;;;;;;16.05;7.68;;;;;;;22.63;56.03;101126.22;5021756;28;20819;-52
2022/12/18 11:50:58;;;;;;;20.70;8.40;;;;;;;22.62;55.97;101122.69;5026571;28;20128;-52
2022/12/18 11:53:26;;;;;;;18.27;8.10;;;;;;;22.64;55.92;101123.50;5025924;28;20496;-52
2022/12/18 11:56:17;;;;;;;15.40;7.65;;;;;;;22.66;55.85;101131.44;5013293;28;20531;-52
2022/12/18 11:58:47;;;;;;;18.08;7.93;;;;;;;22.67;55.91;101135.88;5001214;28;20042;-52
2022/12/18 12:01:19;;;;;;;16.50;7.88;;;;;;;22.69;55.72;101136.69;5009026;28;20053;-52
2022/12/18 12:04:08;;;;;;;16.95;8.35;;;;;;;22.69;55.54;101136.69;5008011;28;20125;-52
2022/12/18 12:06:38;;;;;;;18.15;7.45;;;;;;;22.72;55.68;101133.94;5009894;28;20124;-56
2022/12/18 12:09:08;;;;;;;15.30;8.00;;;;;;;22.72;55.54;101136.59;5009656;28;20042;-52
2022/12/18 12:11:40;;;;;;;16.27;8.55;;;;;;;22.73;55.66;101139.22;5007015;28;20057;-53
2022/12/18 12:14:15;;;;;;;19.33;8.18;;;;;;;22.75;55.76;101136.53;5005731;28;20411;-54
2022/12/18 12:16:45;;;;;;;22.75;8.60;;;;;;;22.76;55.54;101135.59;5008047;28;20048;-53
2022/12/18 12:19:21;;;;;;;18.42;8.68;;;;;;;22.76;55.58;101139.16;5007314;28;20052;-53
2022/12/18 12:21:51;;;;;;;18.08;8.63;;;;;;;22.78;55.50;101141.78;5010440;28;20628;-52
2022/12/18 12:24:27;;;;;;;17.33;8.77;;;;;;;22.79;55.16;101144.38;5007583;28;20049;-52
2022/12/18 12:26:58;;;;;;;17.60;8.27;;;;;;;22.80;55.64;101145.25;5008810;28;20046;-52
2022/12/18 12:29:32;;;;;;;21.02;9.27;;;;;;;22.80;54.91;101139.94;5009689;28;20046;-53
2022/12/18 12:32:07;;;;;;;18.33;8.73;;;;;;;22.80;55.11;101147.91;5006213;28;20604;-53
2022/12/18 12:34:37;;;;;;;17.63;8.50;;;;;;;22.80;54.92;101139.94;5006583;28;20419;-53
2022/12/18 12:37:11;;;;;;;20.80;9.13;;;;;;;22.81;55.12;101141.69;5009170;28;20046;-53
2022/12/18 12:39:39;;;;;;;19.58;8.27;;;;;;;22.83;55.18;101150.47;5007600;28;20038;-53
2022/12/18 12:44:56;;;;;;;18.33;8.85;;;;;;;22.83;54.57;101155.78;5010619;28;20064;-52
2022/12/18 12:47:26;;;;;;;19.02;8.85;;;;;;;22.84;54.84;101157.56;5007976;28;20045;-50
2022/12/18 12:49:54;;;;;;;18.52;9.10;;;;;;;22.85;55.06;101153.97;5002751;28;20128;-52
2022/12/18 12:52:26;;;;;;;19.58;8.48;;;;;;;22.85;54.89;101161.94;5009485;28;20054;-53
2022/12/18 12:54:54;;;;;;;18.38;8.98;;;;;;;22.84;54.54;101157.56;5010000;28;20533;-52
2022/12/18 12:57:25;;;;;;;16.40;8.50;;;;;;;22.85;54.59;101159.28;5005475;28;20038;-51
2022/12/18 12:59:57;;;;;;;18.42;9.82;;;;;;;22.84;54.62;101160.22;5008933;28;20061;-53
2022/12/18 13:02:29;;;;;;;19.27;8.43;;;;;;;22.85;54.60;101161.09;5004267;28;20498;-53
2022/12/18 13:04:59;;;;;;;19.55;8.68;;;;;;;22.85;54.84;101172.56;5009061;28;20149;-54
2022/12/18 13:07:27;;;;;;;22.67;8.35;;;;;;;22.85;55.00;101169.91;5006206;28;20056;-52
2022/12/18 13:10:19;;;;;;;18.10;8.25;;;;;;;22.85;54.67;101174.38;5006437;28;20137;-53
2022/12/18 13:12:57;;;;;;;18.33;8.77;;;;;;;22.85;54.46;101182.34;5006797;28;20562;-52
2022/12/18 13:15:26;;;;;;;20.73;9.70;;;;;;;22.83;53.27;101192.13;5008367;28;20139;-51
2022/12/18 13:18:12;;;;;;;20.90;9.10;;;;;;;22.81;54.32;101195.69;5008049;28;20427;-54
2022/12/18 13:20:41;;;;;;;21.42;8.80;;;;;;;22.80;53.98;101206.38;5005472;28;20042;-52
2022/12/18 13:23:28;;;;;;;21.05;9.00;;;;;;;22.80;54.57;101206.38;5008182;28;20640;-52
2022/12/18 13:25:55;;;;;;;20.33;8.80;;;;;;;22.79;54.75;101208.16;5006430;28;20045;-54
2022/12/18 13:28:24;;;;;;;16.45;8.20;;;;;;;22.78;54.13;101210.88;5009045;28;20073;-52
2022/12/18 13:30:55;;;;;;;19.25;8.65;;;;;;;22.78;54.70;101219.72;4948986;28;20094;-52
2022/12/18 13:33:41;;;;;;;19.45;9.20;;;;;;;22.78;54.67;101232.13;5007171;28;20129;-54
2022/12/18 13:36:17;;;;;;;18.08;8.43;;;;;;;22.77;54.76;101233.88;5008620;28;20056;-50
2022/12/18 13:38:44;;;;;;;16.63;8.43;;;;;;;22.78;54.92;101237.44;5006923;28;20050;-51
2022/12/18 13:41:26;;;;;;;18.80;8.52;;;;;;;22.77;54.59;101243.66;5006464;28;20052;-53
2022/12/18 13:43:53;;;;;;;17.20;8.20;;;;;;;22.75;54.54;101243.69;5005082;28;20054;-53
2022/12/18 13:46:21;;;;;;;16.27;8.27;;;;;;;22.76;54.94;101244.56;5006760;28;20052;-53
2022/12/18 13:48:58;;;;;;;17.00;8.13;;;;;;;22.77;54.75;101247.19;5005468;28;20116;-54
2022/12/18 13:51:26;;;;;;;14.20;7.38;;;;;;;22.78;55.04;101248.06;5007622;28;20062;-54
2022/12/18 13:53:54;;;;;;;18.65;7.80;;;;;;;22.78;54.87;101253.38;5009446;28;20045;-55
2022/12/18 13:56:23;;;;;;;14.07;7.47;;;;;;;22.77;54.86;101255.16;5016774;28;20045;-55
2022/12/18 13:59:16;;;;;;;19.40;7.80;;;;;;;22.79;54.92;101263.09;5003463;28;20046;-55
2022/12/18 14:01:50;;;;;;;16.20;6.85;;;;;;;22.79;54.76;101263.09;5003070;28;20042;-55
2022/12/18 14:04:21;;;;;;;14.05;7.57;;;;;;;22.78;54.75;101269.34;5008779;28;20049;-54
2022/12/18 14:06:52;;;;;;;15.75;7.40;;;;;;;22.79;54.88;101273.72;5005579;28;20056;-55
2022/12/18 14:09:21;;;;;;;13.32;7.20;;;;;;;22.79;54.95;101271.06;5006182;28;20137;-55
2022/12/18 14:11:48;;;;;;;15.35;7.25;;;;;;;22.79;54.84;101265.75;5006661;28;20045;-55
2022/12/18 14:14:16;;;;;;;23.52;9.02;;;;;;;22.79;54.80;101268.41;5000944;28;20523;-55
2022/12/18 14:16:42;;;;;;;15.65;8.02;;;;;;;22.78;54.68;101274.66;5009524;28;20049;-55
2022/12/18 14:19:10;;;;;;;15.93;7.88;;;;;;;22.77;54.88;101264.91;5008972;28;20048;-54
2022/12/18 14:21:37;;;;;;;17.85;8.15;;;;;;;22.77;54.76;101267.56;5009515;28;20136;-54
2022/12/18 14:24:07;;;;;;;16.73;7.63;;;;;;;22.78;54.82;101272.00;5008802;28;20140;-55
2022/12/18 14:26:34;;;;;;;22.08;8.43;;;;;;;22.78;54.92;101282.63;5008305;28;20504;-55
2022/12/18 14:29:02;;;;;;;18.42;8.23;;;;;;;22.77;54.79;101272.88;5010772;28;20060;-55
2022/12/18 14:31:29;;;;;;;16.27;7.38;;;;;;;22.77;54.88;101272.88;5009506;28;20496;-55
2022/12/18 14:33:56;;;;;;;19.27;8.30;;;;;;;22.76;54.62;101274.69;5010210;28;20050;-55
2022/12/18 14:36:24;;;;;;;18.25;8.02;;;;;;;22.76;54.88;101276.44;5008939;28;20089;-55
2022/12/18 14:38:51;;;;;;;16.23;7.70;;;;;;;22.75;54.83;101278.22;5010238;28;20042;-55
2022/12/18 14:41:20;;;;;;;21.17;7.40;;;;;;;22.76;54.81;101279.09;5007357;28;20133;-55
2022/12/18 14:43:48;;;;;;;16.38;7.68;;;;;;;22.75;54.62;101270.25;5009851;28;20049;-55
2022/12/18 14:46:28;;;;;;;18.63;8.00;;;;;;;22.75;54.62;101277.38;5005149;28;20143;-54
2022/12/18 14:49:19;;;;;;;53.10;15.77;;;;;;;22.73;53.63;101287.16;5009583;28;20049;-55
2022/12/18 14:51:48;;;;;;;26.45;11.07;;;;;;;22.72;54.60;101282.75;5008343;28;20120;-55
2022/12/18 14:54:16;;;;;;;33.30;12.02;;;;;;;22.72;54.58;101288.06;4991347;28;20133;-55
2022/12/18 14:56:45;;;;;;;41.47;13.85;;;;;;;22.71;54.62;101291.63;4996659;28;20041;-55
2022/12/18 14:59:15;;;;;;;34.50;13.30;;;;;;;22.69;54.67;101275.72;5010024;28;20062;-55
2022/12/18 15:01:46;;;;;;;41.50;15.32;;;;;;;22.70;54.58;101287.22;5009885;28;20058;-55
2022/12/18 15:04:25;;;;;;;47.08;14.50;;;;;;;22.68;54.52;101292.59;5009812;28;20133;-55
2022/12/18 15:07:07;;;;;;;40.53;14.63;;;;;;;22.68;54.62;101291.69;5009905;28;20056;-55
2022/12/18 15:09:33;;;;;;;42.20;14.57;;;;;;;22.68;54.87;101302.31;5010129;28;20048;-55
2022/12/18 15:12:01;;;;;;;47.83;16.13;;;;;;;22.67;54.61;101306.78;5010135;28;20050;-55
2022/12/18 15:14:36;;;;;;;39.10;14.52;;;;;;;22.67;54.62;101305.91;5010257;28;20053;-55
2022/12/18 15:17:03;;;;;;;;;;;;;;;22.64;54.31;101298.84;5026136;28;20056;-55
2022/12/18 15:19:35;;;;;;;41.50;15.13;;;;;;;22.66;54.68;101306.81;5010742;28;19925;-55
2022/12/18 15:22:01;;;;;;;40.45;14.77;;;;;;;22.66;54.59;101301.50;5010948;28;20179;-55
2022/12/18 15:24:31;;;;;;;38.75;14.75;;;;;;;22.65;54.70;101318.34;5010863;28;20413;-57
2022/12/18 15:26:57;;;;;;;47.22;15.65;;;;;;;22.66;54.98;101317.44;5011542;28;20415;-53
2022/12/18 15:29:26;;;;;;;40.50;15.30;;;;;;;22.67;54.69;101311.22;5011262;28;20054;-54
2022/12/18 15:32:00;;;;;;;46.20;17.20;;;;;;;22.67;54.81;101313.88;5013814;28;20050;-54
2022/12/18 15:34:27;;;;;;;41.10;16.17;;;;;;;22.68;54.79;101315.59;5014746;28;20049;-54
2022/12/18 15:36:53;;;;;;;48.05;16.52;;;;;;;22.67;54.54;101319.19;5014796;28;20053;-54
2022/12/18 15:39:20;;;;;;;49.22;16.95;;;;;;;22.67;54.64;101327.16;5014547;28;20504;-54
2022/12/18 15:44:29;;;;;;;40.00;15.13;;;;;;;22.68;54.51;101327.13;5014098;28;20129;-54
2022/12/18 15:46:58;;;;;;;36.97;15.80;;;;;;;22.69;54.43;101328.00;5014901;28;20058;-54
2022/12/18 15:49:25;;;;;;;46.03;17.05;;;;;;;22.69;54.49;101330.66;5014413;28;20476;-55
2022/12/18 15:51:53;;;;;;;44.28;16.48;;;;;;;22.69;54.58;101336.84;5013249;28;20145;-54
2022/12/18 15:57:22;;;;;;;37.45;14.32;;;;;;;22.71;54.67;101336.81;5014112;28;20415;-54
2022/12/18 15:57:23;;;;;;;44.70;16.25;;;;;;;22.70;54.71;101338.59;5013506;28;20403;-62
2022/12/18 15:59:52;;;;;;;35.22;15.10;;;;;;;22.71;54.60;101331.50;5008676;28;20485;-63
2022/12/18 16:02:19;;;;;;;38.17;15.18;;;;;;;22.71;54.31;101335.03;5011526;28;20497;-63
2022/12/18 16:04:47;;;;;;;43.53;16.10;;;;;;;22.73;54.19;101340.31;5014083;28;20077;-63
2022/12/18 16:07:14;;;;;;;38.95;15.77;;;;;;;22.76;53.87;101340.22;5014446;28;20073;-62
2022/12/18 16:09:41;;;;;;;36.65;15.43;;;;;;;22.77;54.00;101344.63;5014099;28;20056;-62
2022/12/18 16:12:12;;;;;;;38.78;15.90;;;;;;;22.79;53.89;101350.78;5014267;28;20108;-61
2022/12/18 16:14:40;;;;;;;34.15;14.18;;;;;;;22.79;53.77;101343.69;5013751;28;20057;-61
2022/12/18 16:17:12;;;;;;;39.03;14.30;;;;;;;22.80;53.59;101342.78;5013975;28;20060;-61
2022/12/18 16:19:42;;;;;;;32.10;14.23;;;;;;;22.81;53.34;101346.31;5013974;28;20053;-61
2022/12/18 16:22:21;;;;;;;35.70;14.68;;;;;;;22.84;53.68;101358.66;5013182;28;20077;-61
2022/12/18 16:24:48;;;;;;;42.42;14.02;;;;;;;22.83;53.73;101362.22;5013985;28;20053;-60
2022/12/18 16:27:15;;;;;;;31.90;13.70;;;;;;;22.84;53.75;101369.28;5013971;28;20057;-61
2022/12/18 16:29:42;;;;;;;35.15;13.45;;;;;;;22.84;53.34;101370.19;5014106;28;20081;-62
2022/12/18 16:32:13;;;;;;;31.08;14.10;;;;;;;22.86;53.28;101367.50;5014145;28;20046;-62
2022/12/18 16:34:40;;;;;;;32.90;13.82;;;;;;;22.86;53.09;101373.66;5014122;28;20046;-62
2022/12/18 16:37:08;;;;;;;30.30;13.63;;;;;;;22.86;53.33;101372.81;5014215;28;20054;-62
2022/12/18 16:39:35;;;;;;;29.40;13.60;;;;;;;22.86;53.23;101370.16;5013180;28;20053;-62
2022/12/18 16:42:03;;;;;;;38.70;14.30;;;;;;;22.88;53.29;101376.31;5012114;28;20049;-61
2022/12/18 16:44:31;;;;;;;33.25;14.10;;;;;;;22.87;53.27;101374.53;5013113;28;20096;-61
2022/12/18 16:47:01;;;;;;;33.15;13.77;;;;;;;22.87;53.33;101369.22;5012518;28;20500;-61
2022/12/18 16:49:29;;;;;;;31.52;13.88;;;;;;;22.88;53.06;101370.97;5013991;28;20132;-61
2022/12/18 16:51:56;;;;;;;33.55;13.65;;;;;;;22.88;53.04;101376.31;5013610;28;20524;-61
2022/12/18 16:54:22;;;;;;;30.13;13.18;;;;;;;22.88;52.38;101381.63;5005981;28;20137;-61
2022/12/18 16:56:51;;;;;;;35.80;13.80;;;;;;;22.86;52.59;101384.31;5011716;28;20092;-62
2022/12/18 16:59:21;;;;;;;33.17;13.32;;;;;;;22.87;52.01;101394.00;5013250;28;20145;-62
2022/12/18 17:01:48;;;;;;;28.08;13.25;;;;;;;22.85;50.92;101393.16;5012857;28;20042;-62
2022/12/18 17:04:15;;;;;;;27.88;12.80;;;;;;;22.84;51.01;101391.44;5010473;28;20130;-62
2022/12/18 17:06:50;;;;;;;30.45;13.65;;;;;;;22.80;49.80;101400.38;5012615;28;20049;-61
2022/12/18 17:09:17;;;;;;;;;;;;;;;22.80;51.33;101395.94;5013200;28;20046;-62
2022/12/18 17:11:44;;;;;;;24.55;12.15;;;;;;;22.78;49.22;101399.56;5004276;28;19929;-54
2022/12/18 17:14:13;;;;;;;21.67;11.63;;;;;;;22.72;50.44;101400.56;5011891;28;20046;-54
2022/12/18 17:16:39;;;;;;;25.35;10.73;;;;;;;22.69;50.62;101402.41;5012821;28;20058;-54
2022/12/18 17:19:06;;;;;;;23.30;12.25;;;;;;;22.65;50.79;101400.72;5009768;28;20050;-54
2022/12/18 17:21:33;;;;;;;22.38;12.25;;;;;;;22.62;50.19;101401.63;5012177;28;20129;-54
2022/12/18 17:24:01;;;;;;;22.25;11.35;;;;;;;22.57;50.33;101404.41;5012420;28;20519;-55
2022/12/18 17:26:28;;;;;;;24.55;11.48;;;;;;;22.55;49.99;101402.69;5012157;28;20053;-55
2022/12/18 17:28:55;;;;;;;24.10;11.30;;;;;;;22.52;49.71;101395.66;5011214;28;20042;-54
2022/12/18 17:31:23;;;;;;;21.77;10.90;;;;;;;22.50;50.00;101410.75;5011497;28;20044;-54
2022/12/18 17:33:50;;;;;;;21.15;11.05;;;;;;;22.46;50.19;101408.19;5009946;28;20052;-54
2022/12/18 17:36:17;;;;;;;23.00;12.55;;;;;;;22.42;50.05;101413.56;5010383;28;20042;-54
2022/12/18 17:38:43;;;;;;;21.73;11.57;;;;;;;22.40;49.98;101417.16;5011023;28;20044;-54
2022/12/18 17:41:12;;;;;;;22.13;11.23;;;;;;;22.38;50.13;101414.53;5008577;28;20547;-54
2022/12/18 17:43:44;;;;;;;22.20;10.77;;;;;;;22.35;50.07;101403.97;5009402;28;20058;-55
2022/12/18 17:46:11;;;;;;;20.85;10.50;;;;;;;22.35;50.27;101413.72;5008643;28;20054;-54
2022/12/18 17:48:37;;;;;;;19.67;9.30;;;;;;;22.34;50.08;101419.94;5010851;28;20042;-53
2022/12/18 17:51:07;;;;;;;19.58;9.93;;;;;;;22.32;50.38;101427.94;5009520;28;20049;-54
2022/12/18 17:53:35;;;;;;;23.33;10.50;;;;;;;22.31;50.77;101430.63;5010378;28;20428;-54
2022/12/18 17:56:04;;;;;;;19.85;10.77;;;;;;;22.30;50.62;101436.84;5009359;28;20492;-54
2022/12/18 17:58:32;;;;;;;20.95;10.05;;;;;;;22.29;50.42;101445.69;5011469;28;20046;-56
2022/12/18 18:00:59;;;;;;;19.38;9.77;;;;;;;22.28;51.03;101431.56;5010582;28;20556;-55
2022/12/18 18:03:27;;;;;;;22.88;10.00;;;;;;;22.28;51.09;101433.34;5009958;28;20133;-56
2022/12/18 18:05:55;;;;;;;17.63;9.30;;;;;;;22.28;51.14;101441.31;5011296;28;20060;-56
2022/12/18 18:08:22;;;;;;;20.00;9.40;;;;;;;22.27;51.22;101436.88;5008857;28;20041;-56
2022/12/18 18:10:49;;;;;;;19.05;9.65;;;;;;;22.26;51.21;101432.50;5011070;28;20045;-56
2022/12/18 18:16:04;;;;;;;20.98;9.98;;;;;;;22.24;51.29;101437.81;5010069;28;20123;-55
2022/12/18 18:18:30;;;;;;;17.88;9.35;;;;;;;22.23;51.29;101442.22;5010396;28;20725;-55
2022/12/18 18:20:57;;;;;;;17.92;8.82;;;;;;;22.25;51.30;101438.69;5011218;28;20052;-56
2022/12/18 18:23:29;;;;;;;21.80;10.23;;;;;;;22.24;51.28;101443.13;5010655;28;20520;-56
2022/12/18 18:26:02;;;;;;;19.02;8.80;;;;;;;22.25;51.25;101438.69;5007094;28;20061;-56
2022/12/18 18:28:29;;;;;;;17.20;9.27;;;;;;;22.25;51.43;101438.69;5008532;28;20048;-56
2022/12/18 18:30:55;;;;;;;18.77;9.00;;;;;;;22.25;51.24;101433.41;5009267;28;20046;-56
2022/12/18 18:33:23;;;;;;;18.25;9.20;;;;;;;22.23;51.05;101430.72;5011512;28;20044;-56
2022/12/18 18:35:50;;;;;;;16.65;8.90;;;;;;;22.22;50.91;101429.84;5010577;28;20054;-56
2022/12/18 18:38:17;;;;;;;17.73;8.77;;;;;;;22.22;51.00;101435.16;5011274;28;20519;-56
2022/12/18 18:40:43;;;;;;;16.90;9.50;;;;;;;22.22;50.76;101434.31;5008323;28;20046;-56
2022/12/18 18:43:10;;;;;;;17.23;8.90;;;;;;;22.21;51.07;101428.09;5009513;28;20042;-56
2022/12/18 18:45:37;;;;;;;19.60;9.32;;;;;;;22.21;51.08;101422.78;5011507;28;20138;-56
2022/12/18 18:48:04;;;;;;;17.73;9.07;;;;;;;22.20;50.84;101422.84;5010481;28;20046;-56
2022/12/18 18:50:32;;;;;;;16.38;8.25;;;;;;;22.20;50.95;101413.09;5010420;28;20073;-56
2022/12/18 18:52:59;;;;;;;18.48;8.57;;;;;;;22.19;51.01;101408.66;5010569;28;20125;-56
2022/12/18 18:55:26;;;;;;;15.82;8.52;;;;;;;22.19;51.09;101413.97;5010700;28;20046;-56
2022/12/18 18:57:52;;;;;;;15.15;7.55;;;;;;;22.19;50.98;101416.63;5010375;28;20125;-56
2022/12/18 19:00:19;;;;;;;16.42;8.38;;;;;;;22.20;51.02;101421.06;5007341;28;20096;-56
2022/12/18 19:02:45;;;;;;;14.93;7.82;;;;;;;22.20;51.14;101425.50;5010250;28;20044;-56
2022/12/18 19:05:12;;;;;;;16.25;7.95;;;;;;;22.19;51.09;101435.22;5010246;28;20041;-56
2022/12/18 19:07:40;;;;;;;16.65;8.18;;;;;;;22.19;51.14;101432.56;5011463;28;20172;-56
2022/12/18 19:10:08;;;;;;;16.92;8.55;;;;;;;22.19;51.03;101424.59;5012339;28;20049;-57
2022/12/18 19:15:20;;;;;;;17.40;8.38;;;;;;;22.19;50.84;101424.59;5010803;28;20172;-56
2022/12/18 19:17:47;;;;;;;16.08;8.57;;;;;;;22.19;50.80;101416.63;5013698;28;20092;-56
2022/12/18 19:20:13;;;;;;;18.88;9.35;;;;;;;22.18;50.64;101430.81;5015573;28;20041;-56
2022/12/18 19:22:42;;;;;;;15.20;7.68;;;;;;;22.18;51.17;101436.13;5014193;28;20088;-56
2022/12/18 19:25:09;;;;;;;14.30;8.05;;;;;;;22.19;50.67;101437.88;5010033;28;20041;-56
2022/12/18 19:27:38;;;;;;;17.02;8.85;;;;;;;22.18;51.21;101446.75;5013709;28;20053;-56
2022/12/18 19:30:06;;;;;;;14.68;7.97;;;;;;;22.17;50.90;101447.66;5014420;28;20092;-56
2022/12/18 19:32:33;;;;;;;14.65;7.80;;;;;;;22.18;51.02;101449.41;5014532;28;20129;-57
2022/12/18 19:35:00;;;;;;;14.02;8.27;;;;;;;22.18;50.99;101449.41;5005572;28;20781;-56
2022/12/18 19:37:27;;;;;;;18.55;8.13;;;;;;;22.17;51.00;101445.00;5012832;28;20053;-56
2022/12/18 19:39:55;;;;;;;16.98;8.98;;;;;;;22.17;49.49;101458.25;5014181;28;20133;-56
2022/12/18 19:42:23;;;;;;;18.48;8.95;;;;;;;22.15;49.43;101460.06;5012398;28;20653;-56
2022/12/18 19:44:49;;;;;;;18.40;9.50;;;;;;;22.15;50.40;101457.41;5014689;28;20097;-56
2022/12/18 19:47:16;;;;;;;25.85;9.02;;;;;;;22.16;50.56;101453.00;5013662;28;20050;-57
2022/12/18 19:49:43;;;;;;;18.92;8.45;;;;;;;22.17;50.61;101452.09;5013368;28;20048;-56
2022/12/18 19:52:10;;;;;;;15.73;7.72;;;;;;;22.18;51.02;101451.19;5010880;28;20168;-57
2022/12/18 19:54:37;;;;;;;20.80;8.27;;;;;;;22.17;50.76;101452.09;5013159;28;20157;-57
2022/12/18 19:57:06;;;;;;;19.17;9.10;;;;;;;22.16;49.97;101458.31;5013871;28;20077;-56
2022/12/18 19:59:33;;;;;;;27.95;9.07;;;;;;;22.15;50.50;101462.72;5014361;28;20053;-57
2022/12/18 20:02:00;;;;;;;17.77;8.18;;;;;;;22.16;50.69;101460.97;5012039;28;20128;-57
2022/12/18 20:04:27;;;;;;;16.95;7.95;;;;;;;22.18;50.86;101467.13;5012341;28;20136;-57
2022/12/18 20:06:53;;;;;;;17.10;8.55;;;;;;;22.18;50.51;101472.44;5013326;28;20050;-57
2022/12/18 20:09:20;;;;;;;18.17;8.85;;;;;;;22.18;50.71;101465.34;5013114;28;20104;-56
2022/12/18 20:11:47;;;;;;;15.98;8.65;;;;;;;22.18;50.61;101464.47;5013762;28;20515;-57
2022/12/18 20:14:15;;;;;;;16.45;8.63;;;;;;;22.19;50.89;101467.06;5011000;28;20049;-56
2022/12/18 20:16:42;;;;;;;17.25;7.43;;;;;;;22.19;50.90;101464.41;4994848;28;20603;-56
2022/12/18 20:19:09;;;;;;;14.20;8.13;;;;;;;22.20;50.75;101466.19;5011653;28;20481;-56
2022/12/18 20:21:36;;;;;;;15.77;7.88;;;;;;;22.20;50.84;101468.84;5012378;28;20132;-56
2022/12/18 20:24:03;;;;;;;16.15;7.70;;;;;;;22.20;50.60;101474.16;5013589;28;20113;-57
2022/12/18 20:26:30;;;;;;;15.25;7.80;;;;;;;22.21;50.84;101488.28;5013247;28;20141;-57
2022/12/18 20:28:57;;;;;;;15.40;7.40;;;;;;;22.22;50.71;101488.28;5011258;28;20042;-57
2022/12/18 20:31:25;;;;;;;14.32;7.88;;;;;;;22.22;50.96;101488.28;5013947;28;20060;-56
2022/12/18 20:33:52;;;;;;;16.38;8.55;;;;;;;22.22;50.73;101498.91;4996196;28;20444;-56
2022/12/18 20:36:23;;;;;;;15.50;8.40;;;;;;;22.22;50.72;101504.22;5013524;28;20125;-57
2022/12/18 20:38:50;;;;;;;13.73;7.47;;;;;;;22.23;50.95;101499.75;5009561;28;20496;-57
2022/12/18 20:41:18;;;;;;;18.95;8.38;;;;;;;22.22;50.77;101498.91;5013637;28;20045;-57
2022/12/18 20:43:45;;;;;;;15.02;7.80;;;;;;;22.22;50.83;101509.50;5011302;28;20054;-57
2022/12/18 20:46:12;;;;;;;17.70;8.00;;;;;;;22.22;50.70;101503.34;5013489;28;20555;-57
2022/12/18 20:48:41;;;;;;;14.10;7.57;;;;;;;22.22;50.82;101509.50;5013129;28;20582;-57
2022/12/18 20:51:08;;;;;;;13.45;7.25;;;;;;;22.22;50.89;101509.50;5010935;28;20128;-56
2022/12/18 20:53:35;;;;;;;15.77;7.88;;;;;;;22.22;50.90;101512.16;5003781;28;20138;-57
2022/12/18 20:56:06;;;;;;;15.15;7.18;;;;;;;22.22;51.03;101509.50;5013422;28;20133;-57
2022/12/18 20:58:51;;;;;;;12.50;7.20;;;;;;;22.22;50.89;101520.13;5010947;28;20133;-57
2022/12/18 21:01:19;;;;;;;15.18;7.45;;;;;;;22.22;50.97;101530.75;5011927;28;20049;-56
2022/12/18 21:03:50;;;;;;;13.90;7.75;;;;;;;22.23;50.79;101534.28;5013598;28;20054;-56
2022/12/18 21:06:18;;;;;;;17.17;8.00;;;;;;;22.22;50.52;101536.06;5013519;28;20072;-56
2022/12/18 21:08:45;;;;;;;15.50;7.82;;;;;;;22.20;50.63;101532.56;5013082;28;20132;-57
2022/12/18 21:12:29;;;;;;;13.85;7.45;;;;;;;22.19;50.53;101544.06;5013046;28;20515;-56
2022/12/18 21:13:59;;;;;;;13.75;7.15;;;;;;;22.19;50.91;101535.25;5012492;28;20053;-56
2022/12/18 21:16:26;;;;;;;14.43;7.35;;;;;;;22.19;50.85;101546.72;5012696;28;20049;-56
2022/12/18 21:18:55;;;;;;;15.35;8.13;;;;;;;22.19;50.78;101549.38;5012857;28;20129;-56
2022/12/18 21:21:22;;;;;;;13.35;7.57;;;;;;;22.18;50.78;101545.00;5012025;28;20132;-56
2022/12/18 21:23:49;;;;;;;14.52;7.43;;;;;;;22.19;50.83;101552.03;5012657;28;20121;-57
2022/12/18 21:26:17;;;;;;;13.23;7.30;;;;;;;22.17;51.12;101545.88;5012969;28;20419;-56
2022/12/18 21:28:43;;;;;;;13.75;7.63;;;;;;;22.18;50.90;101542.34;5011915;28;20046;-56
2022/12/18 21:31:10;;;;;;;14.82;7.45;;;;;;;22.18;51.08;101542.34;5011298;28;20124;-56
2022/12/18 21:33:37;;;;;;;14.80;7.35;;;;;;;22.17;50.78;101540.56;5012623;28;20045;-55
2022/12/18 21:36:06;;;;;;;12.57;7.15;;;;;;;22.19;51.11;101541.41;5013487;28;20086;-56
2022/12/18 21:38:33;;;;;;;15.60;7.20;;;;;;;22.19;50.95;101548.53;5012460;28;20064;-56
2022/12/18 21:41:00;;;;;;;14.25;7.05;;;;;;;22.18;51.08;101544.13;5011417;28;20133;-57
2022/12/18 21:46:11;;;;;;;15.70;7.72;;;;;;;22.15;51.03;101542.38;5011613;28;20053;-57
2022/12/18 21:48:42;;;;;;;14.93;8.07;;;;;;;22.15;50.88;101539.72;5006447;28;20053;-56
2022/12/18 21:51:10;;;;;;;13.63;7.55;;;;;;;22.14;51.06;101532.69;5007926;28;20046;-57
2022/12/18 21:53:36;;;;;;;13.60;7.05;;;;;;;22.14;51.05;101531.78;5030658;28;20570;-57
2022/12/18 21:56:03;;;;;;;13.00;7.25;;;;;;;22.13;51.12;101522.94;5032488;28;20045;-56
2022/12/18 21:58:30;;;;;;;11.90;6.70;;;;;;;22.13;51.13;101519.44;5012603;28;20626;-57
2022/12/18 22:00:56;;;;;;;13.77;7.00;;;;;;;22.12;50.97;101518.56;4998688;28;20050;-57
2022/12/18 22:03:23;;;;;;;14.00;6.95;;;;;;;22.12;50.96;101513.25;4992820;28;20050;-57
2022/12/18 22:05:50;;;;;;;13.35;7.20;;;;;;;22.12;51.11;101513.25;4993061;28;20046;-57
2022/12/18 22:08:18;;;;;;;12.50;6.97;;;;;;;22.12;50.89;101515.00;4991445;28;20053;-56
2022/12/18 22:10:45;;;;;;;14.80;6.95;;;;;;;22.11;50.88;101510.63;5030445;28;20077;-57
2022/12/18 22:13:12;;;;;;;13.07;6.80;;;;;;;22.11;51.00;101507.97;5011667;28;20062;-57
2022/12/18 22:15:38;;;;;;;12.57;6.90;;;;;;;22.11;51.13;101508.81;5012169;28;20065;-56
2022/12/18 22:18:05;;;;;;;14.90;7.38;;;;;;;22.11;50.97;101503.50;5011385;28;20141;-56
2022/12/18 22:20:32;;;;;;;12.35;6.55;;;;;;;22.10;50.85;101509.75;4997205;28;20045;-56
2022/12/18 22:22:59;;;;;;;13.43;7.40;;;;;;;22.11;50.97;101515.91;5001773;28;20038;-57